This is the latest recevied weather packets stored in our database for station/object VK5GR-12. If no packets are shown the sender has not sent any weather packets the latest 10 day(s).
| Time | Temp. | Humidity | Pressure | Rain* | Wind** | Luminosity | Snow |
|---|---|---|---|---|---|---|---|
| 1777617943 | 28.89° C | 30% | 1014.2 hPa | 0 mm | - | 108 W/m² | - |
| 1777617039 | 28.33° C | 32% | 1014.5 hPa | 0 mm | - | 108 W/m² | - |
| 1777616137 | 27.78° C | 32% | 1014.3 hPa | 0 mm | - | 88 W/m² | - |
| 1777615232 | 28.33° C | 32% | 1014.3 hPa | 0 mm | - | 81 W/m² | - |
| 1777614330 | 28.89° C | 31% | 1014.6 hPa | 0 mm | - | 122 W/m² | - |
| 1777613425 | 28.89° C | 32% | 1014.5 hPa | 0 mm | - | 134 W/m² | - |
| 1777612520 | 28.89° C | 31% | 1014.6 hPa | 0 mm | - | 209 W/m² | - |
| 1777611618 | 28.33° C | 32% | 1014.6 hPa | 0 mm | - | 112 W/m² | - |
| 1777610714 | 28.89° C | 31% | 1014.9 hPa | 0 mm | - | 355 W/m² | - |
| 1777609812 | 28.33° C | 32% | 1014.9 hPa | 0 mm | - | 247 W/m² | - |
| 1777608909 | 28.33° C | 32% | 1014.9 hPa | 0 mm | - | 196 W/m² | - |
| 1777608007 | 28.33° C | 32% | 1015.3 hPa | 0 mm | - | 335 W/m² | - |
| 1777607107 | 28.89° C | 32% | 1015.1 hPa | 0 mm | - | 208 W/m² | - |
| 1777606205 | 28.89° C | 32% | 1015.6 hPa | 0 mm | - | 300 W/m² | - |
| 1777605302 | 28.89° C | 31% | 1015.9 hPa | 0 mm | - | 247 W/m² | - |
| 1777604397 | 28.89° C | 31% | 1016.1 hPa | 0 mm | - | 453 W/m² | - |
| 1777603496 | 27.78° C | 33% | 1016.8 hPa | 0 mm | - | 257 W/m² | - |
| 1777602594 | 29.44° C | 31% | 1017 hPa | 0 mm | - | 358 W/m² | - |
| 1777601692 | 28.89° C | 32% | 1017 hPa | 0 mm | - | 307 W/m² | - |
| 1777585442 | 22.22° C | 39% | 1018.1 hPa | 0 mm | - | 18 W/m² | - |
| 1777584537 | 22.22° C | 39% | 1018 hPa | 0 mm | - | 7 W/m² | - |
| 1777583635 | 22.22° C | 40% | 1018.1 hPa | 0 mm | - | 1 W/m² | - |
| 1777580926 | 22.22° C | 40% | 1017.9 hPa | 0 mm | - | 0 W/m² | - |
| 1777577312 | 22.22° C | 39% | 1017.5 hPa | 0 mm | - | 0 W/m² | - |
| 1777559254 | 21.67° C | 33% | 1019.6 hPa | 0 mm | - | 0 W/m² | - |
* Rain latest hour (hover to see other rain measurements)
** Current wind speed in m/s (hover to see current wind gust speed)